createdAt,value
2022-11-04T00:00:48.590Z,45.38
2022-11-04T00:03:39.782Z,45.42
2022-11-04T00:06:23.649Z,43.45
2022-11-04T00:09:29.249Z,43.80
2022-11-04T00:16:00.514Z,44.95
2022-11-04T00:19:50.445Z,45.92
2022-11-04T00:27:09.157Z,42.42
2022-11-04T00:41:45.858Z,42.35
2022-11-04T00:51:46.360Z,43.45
2022-11-04T00:58:08.630Z,42.03
2022-11-04T01:01:14.685Z,45.90
2022-11-04T01:04:31.230Z,46.28
2022-11-04T01:21:09.993Z,43.33
2022-11-04T01:24:02.841Z,41.63
2022-11-04T01:27:36.917Z,43.70
2022-11-04T01:34:53.629Z,42.47
2022-11-04T01:37:29.126Z,42.38
2022-11-04T01:40:29.573Z,42.88
2022-11-04T01:44:53.523Z,43.50
2022-11-04T01:48:29.223Z,43.22
2022-11-04T01:51:22.374Z,43.28
2022-11-04T01:58:15.751Z,41.97
2022-11-04T02:01:05.204Z,41.72
2022-11-04T02:08:12.195Z,41.45
2022-11-04T02:12:13.985Z,44.13
2022-11-04T02:20:10.170Z,42.80
2022-11-04T02:23:20.577Z,43.30
2022-11-04T02:26:54.370Z,41.42
2022-11-04T02:34:08.563Z,42.20
2022-11-04T02:37:35.278Z,41.58
2022-11-04T02:44:56.827Z,43.72
2022-11-04T02:47:35.210Z,43.95
2022-11-04T02:55:28.610Z,43.78
2022-11-04T02:59:08.444Z,43.10
2022-11-04T03:05:34.537Z,42.30
2022-11-04T03:08:20.053Z,43.95
2022-11-04T03:11:08.094Z,42.40
2022-11-04T03:18:12.044Z,42.63
2022-11-04T03:20:53.015Z,42.30
2022-11-04T03:24:03.768Z,43.22
2022-11-04T03:27:43.735Z,41.80
2022-11-04T03:31:12.465Z,42.90
2022-11-04T03:34:33.797Z,42.08
2022-11-04T03:41:27.275Z,42.55
2022-11-04T03:45:16.252Z,40.08
2022-11-04T03:48:26.476Z,40.65
2022-11-04T03:51:11.601Z,40.33
2022-11-04T03:54:05.732Z,39.83
2022-11-04T04:02:17.400Z,37.10
2022-11-04T04:05:34.297Z,36.17
2022-11-04T04:09:01.636Z,36.70
2022-11-04T04:12:10.347Z,36.88
2022-11-04T04:22:42.430Z,37.15
2022-11-04T04:26:17.067Z,36.22
2022-11-04T04:29:41.287Z,38.58
2022-11-04T04:32:31.217Z,38.60
2022-11-04T04:35:24.150Z,37.60
2022-11-04T04:38:22.636Z,37.35
2022-11-04T04:45:08.339Z,37.08
2022-11-04T04:52:02.581Z,33.50
2022-11-04T04:55:30.802Z,33.95
2022-11-04T04:58:19.630Z,35.10
2022-11-04T05:08:09.061Z,33.70
2022-11-04T05:10:47.382Z,33.67
2022-11-04T05:20:24.757Z,34.50
2022-11-04T05:23:56.408Z,34.20
2022-11-04T05:33:55.260Z,31.33
2022-11-04T05:37:07.715Z,33.35
2022-11-04T05:39:48.318Z,33.05
2022-11-04T05:42:53.120Z,32.35
2022-11-04T05:46:46.800Z,37.55
2022-11-04T05:49:26.241Z,34.38
2022-11-04T05:52:26.148Z,33.60
2022-11-04T05:56:03.334Z,35.28
2022-11-04T06:02:21.252Z,34.05
2022-11-04T06:05:15.025Z,31.88
2022-11-04T06:08:07.380Z,34.05
2022-11-04T06:10:49.874Z,35.72
2022-11-04T06:17:15.413Z,32.80
2022-11-04T06:20:04.032Z,33.33
2022-11-04T06:22:54.826Z,31.58
2022-11-04T06:25:35.236Z,31.90
2022-11-04T06:28:53.787Z,32.30
2022-11-04T06:34:34.465Z,32.45
2022-11-04T06:37:06.472Z,30.75
2022-11-04T06:39:58.393Z,32.38
2022-11-04T06:42:38.997Z,31.67
2022-11-04T06:45:16.682Z,31.48
2022-11-04T06:48:06.199Z,32.63
2022-11-04T06:51:16.368Z,31.83
2022-11-04T06:54:22.901Z,30.80
2022-11-04T06:57:13.098Z,32.47
2022-11-04T07:00:57.520Z,30.23
2022-11-04T07:05:28.155Z,29.77
2022-11-04T07:08:27.601Z,30.35
2022-11-04T07:12:49.325Z,31.45
2022-11-04T07:15:17.522Z,33.08
2022-11-04T07:17:45.061Z,32.00
2022-11-04T07:20:41.673Z,30.58
2022-11-04T07:23:16.901Z,30.88
2022-11-04T07:26:21.904Z,30.98
2022-11-04T07:28:58.281Z,31.98
2022-11-04T07:31:29.095Z,30.65
2022-11-04T07:33:59.121Z,29.25
2022-11-04T07:36:29.232Z,30.70
2022-11-04T07:39:02.633Z,31.05
2022-11-04T07:41:54.247Z,30.70
2022-11-04T07:44:27.457Z,30.25
2022-11-04T07:47:00.137Z,28.00
2022-11-04T07:49:34.740Z,31.10
2022-11-04T07:52:07.431Z,29.50
2022-11-04T07:54:39.428Z,28.83
2022-11-04T07:57:12.028Z,30.25
2022-11-04T07:59:46.605Z,32.33
2022-11-04T08:02:25.237Z,37.40
2022-11-04T08:04:58.908Z,38.75
2022-11-04T08:07:40.996Z,38.63
2022-11-04T08:10:14.918Z,35.42
2022-11-04T08:12:56.745Z,33.03
2022-11-04T08:18:49.664Z,37.95
2022-11-04T08:21:28.285Z,35.22
2022-11-04T08:24:36.518Z,32.83
2022-11-04T08:27:10.618Z,30.42
2022-11-04T08:29:59.052Z,31.73
2022-11-04T08:32:40.375Z,30.42
2022-11-04T08:35:23.257Z,31.48
2022-11-04T08:38:01.550Z,30.83
2022-11-04T08:40:42.781Z,29.77
2022-11-04T08:43:19.395Z,28.70
2022-11-04T08:45:48.864Z,28.98
2022-11-04T08:48:25.019Z,29.65
2022-11-04T08:51:13.173Z,29.08
2022-11-04T08:53:52.360Z,27.17
2022-11-04T08:59:19.370Z,30.35
2022-11-04T09:01:51.029Z,31.42
2022-11-04T09:04:34.427Z,31.92
2022-11-04T09:07:30.827Z,30.92
2022-11-04T09:10:23.988Z,30.80
2022-11-04T09:13:01.964Z,31.83
2022-11-04T09:15:33.946Z,32.92
2022-11-04T09:18:08.249Z,30.42
2022-11-04T09:23:51.957Z,28.77
2022-11-04T09:26:31.596Z,28.83
2022-11-04T09:29:03.752Z,28.42
2022-11-04T09:35:25.590Z,29.58
2022-11-04T09:37:56.362Z,33.13
2022-11-04T09:40:26.914Z,27.40
2022-11-04T09:43:29.819Z,28.88
2022-11-04T09:46:03.013Z,29.48
2022-11-04T09:48:59.459Z,28.05
2022-11-04T09:51:53.099Z,27.73
2022-11-04T09:55:13.464Z,24.65
2022-11-04T10:02:09.643Z,25.20
2022-11-04T10:05:44.196Z,25.73
2022-11-04T10:08:55.694Z,25.63
2022-11-04T10:14:53.387Z,22.65
2022-11-04T10:17:35.281Z,24.65
2022-11-04T10:21:04.848Z,22.92
2022-11-04T10:24:10.468Z,23.73
2022-11-04T10:26:49.322Z,21.70
2022-11-04T10:30:05.365Z,23.50
2022-11-04T10:32:50.145Z,21.85
2022-11-04T10:35:46.733Z,22.45
2022-11-04T10:38:51.823Z,23.30
2022-11-04T10:41:40.374Z,21.38
2022-11-04T10:44:31.757Z,33.20
2022-11-04T10:47:20.106Z,22.23
2022-11-04T10:50:30.495Z,35.53
2022-11-04T10:53:25.348Z,29.35
2022-11-04T10:56:59.783Z,24.40
2022-11-04T11:00:04.541Z,48.22
2022-11-04T11:02:50.907Z,41.13
2022-11-04T11:08:59.247Z,26.27
2022-11-04T11:11:54.584Z,24.58
2022-11-04T11:14:56.078Z,30.52
2022-11-04T11:18:08.853Z,26.80
2022-11-04T11:20:52.902Z,27.63
2022-11-04T11:24:04.318Z,22.83
2022-11-04T11:27:15.292Z,22.33
2022-11-04T11:32:46.655Z,22.23
2022-11-04T11:35:17.938Z,23.02
2022-11-04T11:37:49.178Z,22.45
2022-11-04T11:40:32.552Z,21.83
2022-11-04T11:43:06.149Z,22.00
2022-11-04T11:45:52.555Z,22.42
2022-11-04T11:48:43.260Z,22.92
2022-11-04T11:51:20.064Z,22.63
2022-11-04T11:54:25.592Z,25.08
2022-11-04T11:57:15.404Z,23.52
2022-11-04T12:03:00.864Z,21.67
2022-11-04T12:09:18.102Z,24.58
2022-11-04T12:12:01.044Z,22.77
2022-11-04T12:15:15.105Z,23.40
2022-11-04T12:17:55.087Z,24.13
2022-11-04T12:20:36.448Z,27.40
2022-11-04T12:23:45.997Z,24.35
2022-11-04T12:26:34.209Z,22.98
2022-11-04T12:29:31.364Z,32.60
2022-11-04T12:32:29.444Z,29.25
2022-11-04T12:35:27.180Z,26.55
2022-11-04T12:38:34.237Z,24.98
2022-11-04T12:41:42.239Z,22.40
2022-11-04T12:44:23.251Z,20.88
2022-11-04T12:47:28.470Z,21.23
2022-11-04T12:50:43.296Z,21.30
2022-11-04T12:53:52.832Z,22.23
2022-11-04T12:56:41.504Z,20.27
2022-11-04T12:59:24.512Z,20.15
2022-11-04T13:02:06.355Z,20.88
2022-11-04T13:04:52.989Z,21.67
2022-11-04T13:07:54.645Z,22.63
2022-11-04T13:11:25.359Z,22.20
2022-11-04T13:14:34.023Z,21.90
2022-11-04T13:17:20.562Z,21.50
2022-11-04T13:23:20.036Z,23.15
2022-11-04T13:26:20.663Z,25.13
2022-11-04T13:29:21.132Z,30.58
2022-11-04T13:32:25.971Z,28.80
2022-11-04T13:35:36.982Z,47.55
2022-11-04T13:38:25.421Z,27.35
2022-11-04T13:41:36.294Z,27.42
2022-11-04T13:44:24.800Z,35.88
2022-11-04T13:47:03.861Z,25.45
2022-11-04T13:49:38.717Z,24.15
2022-11-04T13:53:02.771Z,21.83
2022-11-04T13:56:31.701Z,21.67
2022-11-04T13:59:38.749Z,24.63
2022-11-04T14:02:48.300Z,24.80
2022-11-04T14:06:09.097Z,26.73
2022-11-04T14:09:29.835Z,22.75
2022-11-04T14:12:48.638Z,26.52
2022-11-04T14:16:34.570Z,27.05
2022-11-04T14:19:46.993Z,29.70
2022-11-04T14:22:35.402Z,25.70
2022-11-04T14:25:42.263Z,24.90
2022-11-04T14:28:32.387Z,26.58
2022-11-04T14:31:36.633Z,25.45
2022-11-04T14:34:35.570Z,26.98
2022-11-04T14:37:19.702Z,26.05
2022-11-04T14:39:58.998Z,27.25
2022-11-04T14:42:51.640Z,26.60
2022-11-04T14:45:24.731Z,25.80
2022-11-04T14:48:02.543Z,28.15
2022-11-04T14:50:42.804Z,29.02
2022-11-04T14:53:41.296Z,30.33
2022-11-04T14:56:35.008Z,28.00
2022-11-04T14:59:33.854Z,28.33
2022-11-04T15:02:05.422Z,30.58
2022-11-04T15:04:34.391Z,31.75
2022-11-04T15:07:05.110Z,35.03
2022-11-04T15:10:05.208Z,31.85
2022-11-04T15:12:56.837Z,28.35
2022-11-04T15:16:10.138Z,26.38
2022-11-04T15:18:54.061Z,30.83
2022-11-04T15:21:37.077Z,28.75
2022-11-04T15:24:27.251Z,27.98
2022-11-04T15:27:06.104Z,28.58
2022-11-04T15:29:34.575Z,28.50
2022-11-04T15:32:05.698Z,30.08
2022-11-04T15:34:34.477Z,27.55
2022-11-04T15:37:05.546Z,33.50
2022-11-04T15:39:37.916Z,29.95
2022-11-04T15:42:40.458Z,29.33
2022-11-04T15:45:35.207Z,29.33
2022-11-04T15:48:38.672Z,27.52
2022-11-04T15:51:25.621Z,30.70
2022-11-04T15:54:07.136Z,28.40
2022-11-04T15:56:45.719Z,31.58
2022-11-04T15:59:18.996Z,28.17
2022-11-04T16:01:52.821Z,28.88
2022-11-04T16:04:25.444Z,30.38
2022-11-04T16:07:22.561Z,30.00
2022-11-04T16:10:08.467Z,28.80
2022-11-04T16:12:40.302Z,29.77
2022-11-04T16:15:58.242Z,29.33
2022-11-04T16:18:48.718Z,29.42
2022-11-04T16:22:24.490Z,26.08
2022-11-04T16:25:03.713Z,27.15
2022-11-04T16:27:41.853Z,26.10
2022-11-04T16:30:24.735Z,25.83
2022-11-04T16:32:55.699Z,26.13
2022-11-04T16:35:43.234Z,25.60
2022-11-04T16:38:10.767Z,28.45
2022-11-04T16:40:38.337Z,25.92
2022-11-04T16:43:08.543Z,27.50
2022-11-04T16:45:38.825Z,25.73
2022-11-04T16:48:08.416Z,26.13
2022-11-04T16:50:36.022Z,26.75
2022-11-04T16:53:03.818Z,27.08
2022-11-04T16:55:33.709Z,26.65
2022-11-04T16:58:05.271Z,32.30
2022-11-04T17:00:36.540Z,33.65
2022-11-04T17:03:22.882Z,32.38
2022-11-04T17:05:57.118Z,29.42
2022-11-04T17:10:54.304Z,54.80
2022-11-04T17:17:19.432Z,48.05
2022-11-04T17:19:54.349Z,36.65
2022-11-04T17:23:43.344Z,36.85
2022-11-04T17:26:42.593Z,35.88
2022-11-04T17:29:17.488Z,30.17
2022-11-04T17:31:57.012Z,32.47
2022-11-04T17:34:50.846Z,30.00
2022-11-04T17:37:20.073Z,31.02
2022-11-04T17:39:56.351Z,31.38
2022-11-04T17:43:14.322Z,28.65
2022-11-04T17:45:54.522Z,32.75
2022-11-04T17:48:23.376Z,32.67
2022-11-04T17:50:50.831Z,35.10
2022-11-04T17:53:22.591Z,44.53
2022-11-04T17:55:51.667Z,41.20
2022-11-04T17:58:22.744Z,40.17
2022-11-04T18:01:06.087Z,31.35
2022-11-04T18:03:34.714Z,31.95
2022-11-04T18:06:02.439Z,29.63
2022-11-04T18:08:31.225Z,31.75
2022-11-04T18:11:00.749Z,41.42
2022-11-04T18:13:31.071Z,36.20
2022-11-04T18:16:15.432Z,29.98
2022-11-04T18:18:43.449Z,31.00
2022-11-04T18:21:14.814Z,28.65
2022-11-04T18:23:45.836Z,30.60
2022-11-04T18:26:16.085Z,29.60
2022-11-04T18:28:43.581Z,32.13
2022-11-04T18:31:13.414Z,29.30
2022-11-04T18:33:46.086Z,29.58
2022-11-04T18:36:16.058Z,28.90
2022-11-04T18:38:44.789Z,31.08
2022-11-04T18:41:14.113Z,29.40
2022-11-04T18:43:46.218Z,28.45
2022-11-04T18:46:16.316Z,28.15
2022-11-04T18:48:50.329Z,27.15
2022-11-04T18:51:20.800Z,27.00
2022-11-04T18:53:49.331Z,28.45
2022-11-04T18:56:21.903Z,26.77
2022-11-04T18:58:50.211Z,26.85
2022-11-04T19:01:23.920Z,26.90
2022-11-04T19:03:55.083Z,27.02
2022-11-04T19:06:27.651Z,28.73
2022-11-04T19:09:04.940Z,27.63
2022-11-04T19:11:43.899Z,27.83
2022-11-04T19:14:22.007Z,26.45
2022-11-04T19:17:01.237Z,26.20
2022-11-04T19:19:48.308Z,26.77
2022-11-04T19:22:28.818Z,26.33
2022-11-04T19:24:57.299Z,25.65
2022-11-04T19:27:33.223Z,36.72
2022-11-04T19:30:25.958Z,26.67
2022-11-04T19:33:45.484Z,26.05
2022-11-04T19:36:27.254Z,25.65
2022-11-04T19:39:13.603Z,25.90
2022-11-04T19:42:17.680Z,25.48
2022-11-04T19:44:49.296Z,24.45
2022-11-04T19:47:19.438Z,28.48
2022-11-04T19:49:47.209Z,29.83
2022-11-04T19:52:18.170Z,29.75
2022-11-04T19:54:50.822Z,32.13
2022-11-04T19:57:18.548Z,30.38
2022-11-04T19:59:47.253Z,28.95
2022-11-04T20:02:15.866Z,27.38
2022-11-04T20:04:44.588Z,25.98
2022-11-04T20:07:14.431Z,26.45
2022-11-04T20:09:43.748Z,25.58
2022-11-04T20:12:32.472Z,24.65
2022-11-04T20:15:43.241Z,26.60
2022-11-04T20:18:16.570Z,25.85
2022-11-04T20:20:53.581Z,24.92
2022-11-04T20:23:24.639Z,23.25
2022-11-04T20:25:55.062Z,23.90
2022-11-04T20:28:25.417Z,21.75
2022-11-04T20:30:57.504Z,25.27
2022-11-04T20:33:25.129Z,22.92
2022-11-04T20:36:09.786Z,21.27
2022-11-04T20:38:44.543Z,22.45
2022-11-04T20:41:24.923Z,23.23
2022-11-04T20:43:57.513Z,21.80
2022-11-04T20:46:34.155Z,24.23
2022-11-04T20:49:11.569Z,23.83
2022-11-04T20:51:50.330Z,21.73
2022-11-04T20:59:11.108Z,37.13
2022-11-04T21:02:56.549Z,29.00
2022-11-04T21:06:08.420Z,24.23
2022-11-04T21:09:53.491Z,24.55
2022-11-04T21:12:52.772Z,22.95
2022-11-04T21:19:51.958Z,29.60
2022-11-04T21:23:22.415Z,23.60
2022-11-04T21:26:11.389Z,21.65
2022-11-04T21:29:11.762Z,21.20
2022-11-04T21:32:31.078Z,21.17
2022-11-04T21:36:23.041Z,22.25
2022-11-04T21:39:34.311Z,22.02
2022-11-04T21:47:33.714Z,22.02
2022-11-04T21:50:31.277Z,22.10
2022-11-04T21:53:01.151Z,22.10
2022-11-04T21:56:11.299Z,22.67
2022-11-04T21:58:43.453Z,23.35
2022-11-04T22:02:04.088Z,20.98
2022-11-04T22:04:49.100Z,20.98
2022-11-04T22:17:14.892Z,24.27
2022-11-04T22:20:15.347Z,22.67
2022-11-04T22:23:22.764Z,22.98
2022-11-04T22:26:44.036Z,22.17
2022-11-04T22:33:01.316Z,23.20
2022-11-04T22:39:17.149Z,20.33
2022-11-04T22:42:02.961Z,19.33
2022-11-04T22:44:39.677Z,18.70
2022-11-04T22:47:24.593Z,18.88
2022-11-04T22:50:40.726Z,18.40
2022-11-04T22:54:08.140Z,17.85
2022-11-04T22:57:28.294Z,18.67
2022-11-04T23:00:10.099Z,18.63
2022-11-04T23:02:55.455Z,17.05
2022-11-04T23:06:06.304Z,17.55
2022-11-04T23:09:21.373Z,17.30
2022-11-04T23:15:34.596Z,18.10
2022-11-04T23:18:33.992Z,17.85
2022-11-04T23:21:34.963Z,17.92
2022-11-04T23:24:41.116Z,17.88
2022-11-04T23:28:09.247Z,17.27
2022-11-04T23:31:19.431Z,17.38
2022-11-04T23:34:16.335Z,17.42
2022-11-04T23:37:23.359Z,18.85
2022-11-04T23:40:44.301Z,21.92
2022-11-04T23:43:41.433Z,17.65
2022-11-04T23:46:43.446Z,15.88
2022-11-04T23:56:46.327Z,15.13
2022-11-04T23:59:41.854Z,14.50
